sensor_id;sensor_type;location;lat;lon;timestamp;P1;durP1;ratioP1;P2;durP2;ratioP2
17696;SDS011;8967;47.984;7.842;2023-02-28T00:00:19;3.60;;;2.43;;
17696;SDS011;8967;47.984;7.842;2023-02-28T00:02:49;5.10;;;2.27;;
17696;SDS011;8967;47.984;7.842;2023-02-28T00:05:17;3.07;;;2.27;;
17696;SDS011;8967;47.984;7.842;2023-02-28T00:07:46;3.57;;;2.30;;
17696;SDS011;8967;47.984;7.842;2023-02-28T00:10:14;2.40;;;2.20;;
17696;SDS011;8967;47.984;7.842;2023-02-28T00:12:47;4.83;;;2.50;;
17696;SDS011;8967;47.984;7.842;2023-02-28T00:15:14;3.23;;;2.47;;
17696;SDS011;8967;47.984;7.842;2023-02-28T00:17:41;3.27;;;2.60;;
17696;SDS011;8967;47.984;7.842;2023-02-28T00:20:10;2.53;;;2.13;;
17696;SDS011;8967;47.984;7.842;2023-02-28T00:22:41;3.23;;;2.43;;
17696;SDS011;8967;47.984;7.842;2023-02-28T00:25:12;3.30;;;2.30;;
17696;SDS011;8967;47.984;7.842;2023-02-28T00:27:40;3.27;;;2.70;;
17696;SDS011;8967;47.984;7.842;2023-02-28T00:30:10;6.07;;;2.87;;
17696;SDS011;8967;47.984;7.842;2023-02-28T00:32:38;2.57;;;2.37;;
17696;SDS011;8967;47.984;7.842;2023-02-28T00:35:06;3.63;;;2.60;;
17696;SDS011;8967;47.984;7.842;2023-02-28T00:37:34;4.43;;;2.57;;
17696;SDS011;8967;47.984;7.842;2023-02-28T00:40:02;5.93;;;3.13;;
17696;SDS011;8967;47.984;7.842;2023-02-28T00:42:34;3.87;;;2.30;;
17696;SDS011;8967;47.984;7.842;2023-02-28T00:45:01;3.23;;;2.40;;
17696;SDS011;8967;47.984;7.842;2023-02-28T00:47:31;5.73;;;2.70;;
17696;SDS011;8967;47.984;7.842;2023-02-28T00:50:00;3.53;;;2.43;;
17696;SDS011;8967;47.984;7.842;2023-02-28T00:52:27;3.80;;;2.40;;
17696;SDS011;8967;47.984;7.842;2023-02-28T00:54:54;4.93;;;2.83;;
17696;SDS011;8967;47.984;7.842;2023-02-28T00:57:23;4.33;;;2.50;;
17696;SDS011;8967;47.984;7.842;2023-02-28T00:59:51;3.47;;;2.70;;
17696;SDS011;8967;47.984;7.842;2023-02-28T01:02:20;3.67;;;2.77;;
17696;SDS011;8967;47.984;7.842;2023-02-28T01:04:48;4.97;;;2.40;;
17696;SDS011;8967;47.984;7.842;2023-02-28T01:07:15;3.83;;;2.73;;
17696;SDS011;8967;47.984;7.842;2023-02-28T01:09:45;3.57;;;2.30;;
17696;SDS011;8967;47.984;7.842;2023-02-28T01:12:12;4.20;;;2.57;;
17696;SDS011;8967;47.984;7.842;2023-02-28T01:14:39;4.67;;;2.80;;
17696;SDS011;8967;47.984;7.842;2023-02-28T01:17:06;5.47;;;2.50;;
17696;SDS011;8967;47.984;7.842;2023-02-28T01:19:33;4.63;;;2.87;;
17696;SDS011;8967;47.984;7.842;2023-02-28T01:22:03;4.27;;;2.90;;
17696;SDS011;8967;47.984;7.842;2023-02-28T01:24:33;4.30;;;2.63;;
17696;SDS011;8967;47.984;7.842;2023-02-28T01:27:00;3.83;;;2.83;;
17696;SDS011;8967;47.984;7.842;2023-02-28T01:29:27;5.00;;;3.00;;
17696;SDS011;8967;47.984;7.842;2023-02-28T01:31:56;3.63;;;2.47;;
17696;SDS011;8967;47.984;7.842;2023-02-28T01:34:24;5.80;;;2.97;;
17696;SDS011;8967;47.984;7.842;2023-02-28T01:36:51;4.30;;;2.80;;
17696;SDS011;8967;47.984;7.842;2023-02-28T01:39:22;5.33;;;2.80;;
17696;SDS011;8967;47.984;7.842;2023-02-28T01:41:49;3.63;;;2.87;;
17696;SDS011;8967;47.984;7.842;2023-02-28T01:47:24;3.60;;;2.70;;
17696;SDS011;8967;47.984;7.842;2023-02-28T01:49:56;3.33;;;2.57;;
17696;SDS011;8967;47.984;7.842;2023-02-28T01:52:24;4.53;;;2.90;;
17696;SDS011;8967;47.984;7.842;2023-02-28T01:54:54;4.10;;;3.13;;
17696;SDS011;8967;47.984;7.842;2023-02-28T01:57:24;7.33;;;3.00;;
17696;SDS011;8967;47.984;7.842;2023-02-28T01:59:57;4.17;;;2.77;;
17696;SDS011;8967;47.984;7.842;2023-02-28T02:02:26;4.33;;;2.93;;
17696;SDS011;8967;47.984;7.842;2023-02-28T02:04:55;3.80;;;2.80;;
17696;SDS011;8967;47.984;7.842;2023-02-28T02:07:29;3.30;;;2.63;;
17696;SDS011;8967;47.984;7.842;2023-02-28T02:10:03;4.20;;;2.90;;
17696;SDS011;8967;47.984;7.842;2023-02-28T02:12:35;6.30;;;3.10;;
17696;SDS011;8967;47.984;7.842;2023-02-28T02:15:24;4.67;;;3.17;;
17696;SDS011;8967;47.984;7.842;2023-02-28T02:17:57;4.23;;;2.80;;
17696;SDS011;8967;47.984;7.842;2023-02-28T02:23:33;3.60;;;2.80;;
17696;SDS011;8967;47.984;7.842;2023-02-28T02:26:26;3.50;;;2.67;;
17696;SDS011;8967;47.984;7.842;2023-02-28T02:29:20;2.77;;;2.30;;
17696;SDS011;8967;47.984;7.842;2023-02-28T02:32:03;4.13;;;2.60;;
17696;SDS011;8967;47.984;7.842;2023-02-28T02:34:44;6.10;;;2.57;;
17696;SDS011;8967;47.984;7.842;2023-02-28T02:37:27;6.83;;;2.77;;
17696;SDS011;8967;47.984;7.842;2023-02-28T02:40:00;3.87;;;2.70;;
17696;SDS011;8967;47.984;7.842;2023-02-28T02:42:35;3.23;;;2.57;;
17696;SDS011;8967;47.984;7.842;2023-02-28T02:45:09;4.33;;;3.30;;
17696;SDS011;8967;47.984;7.842;2023-02-28T02:47:40;4.93;;;2.77;;
17696;SDS011;8967;47.984;7.842;2023-02-28T02:50:12;3.63;;;2.73;;
17696;SDS011;8967;47.984;7.842;2023-02-28T02:52:44;4.50;;;2.50;;
17696;SDS011;8967;47.984;7.842;2023-02-28T02:55:15;5.27;;;2.97;;
17696;SDS011;8967;47.984;7.842;2023-02-28T02:57:46;4.47;;;3.10;;
17696;SDS011;8967;47.984;7.842;2023-02-28T03:00:16;4.67;;;3.00;;
17696;SDS011;8967;47.984;7.842;2023-02-28T03:02:47;4.27;;;3.00;;
17696;SDS011;8967;47.984;7.842;2023-02-28T03:05:21;5.23;;;2.43;;
17696;SDS011;8967;47.984;7.842;2023-02-28T03:07:54;3.80;;;2.77;;
17696;SDS011;8967;47.984;7.842;2023-02-28T03:10:35;4.70;;;2.83;;
17696;SDS011;8967;47.984;7.842;2023-02-28T03:13:27;5.10;;;2.70;;
17696;SDS011;8967;47.984;7.842;2023-02-28T03:16:12;3.57;;;2.77;;
17696;SDS011;8967;47.984;7.842;2023-02-28T03:18:56;3.03;;;2.57;;
17696;SDS011;8967;47.984;7.842;2023-02-28T03:21:34;4.40;;;2.63;;
17696;SDS011;8967;47.984;7.842;2023-02-28T03:24:07;4.87;;;2.90;;
17696;SDS011;8967;47.984;7.842;2023-02-28T03:26:39;3.70;;;2.50;;
17696;SDS011;8967;47.984;7.842;2023-02-28T03:29:13;3.63;;;2.73;;
17696;SDS011;8967;47.984;7.842;2023-02-28T03:31:47;6.67;;;2.80;;
17696;SDS011;8967;47.984;7.842;2023-02-28T03:34:19;3.93;;;2.90;;
17696;SDS011;8967;47.984;7.842;2023-02-28T03:36:57;5.60;;;3.20;;
17696;SDS011;8967;47.984;7.842;2023-02-28T03:39:29;4.53;;;2.70;;
17696;SDS011;8967;47.984;7.842;2023-02-28T03:42:04;4.33;;;2.70;;
17696;SDS011;8967;47.984;7.842;2023-02-28T03:44:38;5.40;;;2.90;;
17696;SDS011;8967;47.984;7.842;2023-02-28T03:47:08;4.03;;;3.00;;
17696;SDS011;8967;47.984;7.842;2023-02-28T03:49:39;4.53;;;2.90;;
17696;SDS011;8967;47.984;7.842;2023-02-28T03:52:14;3.17;;;2.40;;
17696;SDS011;8967;47.984;7.842;2023-02-28T03:54:41;7.17;;;2.63;;
17696;SDS011;8967;47.984;7.842;2023-02-28T03:57:12;3.73;;;2.80;;
17696;SDS011;8967;47.984;7.842;2023-02-28T03:59:46;6.13;;;3.00;;
17696;SDS011;8967;47.984;7.842;2023-02-28T04:02:18;5.90;;;3.07;;
17696;SDS011;8967;47.984;7.842;2023-02-28T04:04:45;2.77;;;2.50;;
17696;SDS011;8967;47.984;7.842;2023-02-28T04:07:14;3.87;;;2.70;;
17696;SDS011;8967;47.984;7.842;2023-02-28T04:09:41;4.13;;;2.57;;
17696;SDS011;8967;47.984;7.842;2023-02-28T04:12:11;4.27;;;2.80;;
17696;SDS011;8967;47.984;7.842;2023-02-28T04:14:38;3.37;;;2.37;;
17696;SDS011;8967;47.984;7.842;2023-02-28T04:17:05;5.70;;;3.03;;
17696;SDS011;8967;47.984;7.842;2023-02-28T04:19:32;3.27;;;2.97;;
17696;SDS011;8967;47.984;7.842;2023-02-28T04:21:59;5.47;;;2.70;;
17696;SDS011;8967;47.984;7.842;2023-02-28T04:24:27;3.10;;;2.80;;
17696;SDS011;8967;47.984;7.842;2023-02-28T04:26:55;5.17;;;3.10;;
17696;SDS011;8967;47.984;7.842;2023-02-28T04:29:23;4.77;;;3.27;;
17696;SDS011;8967;47.984;7.842;2023-02-28T04:31:51;4.27;;;2.60;;
17696;SDS011;8967;47.984;7.842;2023-02-28T04:34:19;3.83;;;3.30;;
17696;SDS011;8967;47.984;7.842;2023-02-28T04:36:48;3.77;;;2.60;;
17696;SDS011;8967;47.984;7.842;2023-02-28T04:39:15;3.20;;;2.90;;
17696;SDS011;8967;47.984;7.842;2023-02-28T04:41:45;3.20;;;2.87;;
17696;SDS011;8967;47.984;7.842;2023-02-28T04:44:12;8.67;;;3.10;;
17696;SDS011;8967;47.984;7.842;2023-02-28T04:46:39;4.43;;;3.33;;
17696;SDS011;8967;47.984;7.842;2023-02-28T04:49:06;5.50;;;3.00;;
17696;SDS011;8967;47.984;7.842;2023-02-28T04:51:36;5.20;;;2.90;;
17696;SDS011;8967;47.984;7.842;2023-02-28T04:54:03;4.87;;;3.43;;
17696;SDS011;8967;47.984;7.842;2023-02-28T04:56:30;4.43;;;3.10;;
17696;SDS011;8967;47.984;7.842;2023-02-28T04:59:01;5.50;;;3.13;;
17696;SDS011;8967;47.984;7.842;2023-02-28T05:01:28;5.43;;;3.50;;
17696;SDS011;8967;47.984;7.842;2023-02-28T05:03:57;4.00;;;3.13;;
17696;SDS011;8967;47.984;7.842;2023-02-28T05:06:25;5.33;;;3.17;;
17696;SDS011;8967;47.984;7.842;2023-02-28T05:08:53;4.90;;;3.20;;
17696;SDS011;8967;47.984;7.842;2023-02-28T05:11:21;6.93;;;3.17;;
17696;SDS011;8967;47.984;7.842;2023-02-28T05:13:52;5.03;;;3.00;;
17696;SDS011;8967;47.984;7.842;2023-02-28T05:16:21;5.93;;;3.70;;
17696;SDS011;8967;47.984;7.842;2023-02-28T05:18:48;5.17;;;3.60;;
17696;SDS011;8967;47.984;7.842;2023-02-28T05:21:21;4.67;;;3.30;;
17696;SDS011;8967;47.984;7.842;2023-02-28T05:23:51;4.30;;;3.07;;
17696;SDS011;8967;47.984;7.842;2023-02-28T05:26:18;5.67;;;3.53;;
17696;SDS011;8967;47.984;7.842;2023-02-28T05:28:45;5.57;;;3.40;;
17696;SDS011;8967;47.984;7.842;2023-02-28T05:31:12;4.63;;;3.30;;
17696;SDS011;8967;47.984;7.842;2023-02-28T05:33:41;6.37;;;3.60;;
17696;SDS011;8967;47.984;7.842;2023-02-28T05:36:10;4.47;;;3.57;;
17696;SDS011;8967;47.984;7.842;2023-02-28T05:38:37;3.90;;;3.50;;
17696;SDS011;8967;47.984;7.842;2023-02-28T05:41:06;4.87;;;3.23;;
17696;SDS011;8967;47.984;7.842;2023-02-28T05:43:34;5.33;;;3.63;;
17696;SDS011;8967;47.984;7.842;2023-02-28T05:46:04;5.27;;;3.73;;
17696;SDS011;8967;47.984;7.842;2023-02-28T05:48:32;5.07;;;3.70;;
17696;SDS011;8967;47.984;7.842;2023-02-28T05:51:01;10.00;;;3.83;;
17696;SDS011;8967;47.984;7.842;2023-02-28T05:53:28;3.90;;;3.50;;
17696;SDS011;8967;47.984;7.842;2023-02-28T05:55:56;8.43;;;4.07;;
17696;SDS011;8967;47.984;7.842;2023-02-28T05:58:23;7.00;;;3.83;;
17696;SDS011;8967;47.984;7.842;2023-02-28T06:00:54;6.80;;;4.33;;
17696;SDS011;8967;47.984;7.842;2023-02-28T06:03:21;6.27;;;4.27;;
17696;SDS011;8967;47.984;7.842;2023-02-28T06:05:48;4.97;;;3.53;;
17696;SDS011;8967;47.984;7.842;2023-02-28T06:08:16;6.07;;;3.77;;
17696;SDS011;8967;47.984;7.842;2023-02-28T06:10:44;5.70;;;4.10;;
17696;SDS011;8967;47.984;7.842;2023-02-28T06:13:11;10.33;;;4.13;;
17696;SDS011;8967;47.984;7.842;2023-02-28T06:15:38;7.40;;;4.20;;
17696;SDS011;8967;47.984;7.842;2023-02-28T06:18:05;6.13;;;4.27;;
17696;SDS011;8967;47.984;7.842;2023-02-28T06:20:32;8.60;;;3.80;;
17696;SDS011;8967;47.984;7.842;2023-02-28T06:22:59;6.17;;;3.80;;
17696;SDS011;8967;47.984;7.842;2023-02-28T06:25:30;6.07;;;3.70;;
17696;SDS011;8967;47.984;7.842;2023-02-28T06:27:57;5.53;;;3.83;;
17696;SDS011;8967;47.984;7.842;2023-02-28T06:30:24;6.87;;;4.33;;
17696;SDS011;8967;47.984;7.842;2023-02-28T06:32:52;6.03;;;4.37;;
17696;SDS011;8967;47.984;7.842;2023-02-28T06:35:19;7.57;;;4.17;;
17696;SDS011;8967;47.984;7.842;2023-02-28T06:37:46;7.10;;;3.90;;
17696;SDS011;8967;47.984;7.842;2023-02-28T06:40:13;6.20;;;4.43;;
17696;SDS011;8967;47.984;7.842;2023-02-28T06:42:41;7.50;;;3.57;;
17696;SDS011;8967;47.984;7.842;2023-02-28T06:45:09;7.03;;;4.03;;
17696;SDS011;8967;47.984;7.842;2023-02-28T06:47:37;7.07;;;3.80;;
17696;SDS011;8967;47.984;7.842;2023-02-28T06:50:07;8.17;;;4.10;;
17696;SDS011;8967;47.984;7.842;2023-02-28T06:52:35;7.13;;;4.13;;
17696;SDS011;8967;47.984;7.842;2023-02-28T06:55:02;5.77;;;4.03;;
17696;SDS011;8967;47.984;7.842;2023-02-28T06:57:30;7.67;;;3.70;;
17696;SDS011;8967;47.984;7.842;2023-02-28T06:59:59;9.67;;;4.47;;
17696;SDS011;8967;47.984;7.842;2023-02-28T07:02:28;7.97;;;4.57;;
17696;SDS011;8967;47.984;7.842;2023-02-28T07:04:54;7.67;;;5.03;;
17696;SDS011;8967;47.984;7.842;2023-02-28T07:07:21;7.40;;;4.27;;
17696;SDS011;8967;47.984;7.842;2023-02-28T07:09:48;7.23;;;4.07;;
17696;SDS011;8967;47.984;7.842;2023-02-28T07:12:16;4.97;;;3.97;;
17696;SDS011;8967;47.984;7.842;2023-02-28T07:14:43;6.43;;;4.13;;
17696;SDS011;8967;47.984;7.842;2023-02-28T07:17:11;7.27;;;4.67;;
17696;SDS011;8967;47.984;7.842;2023-02-28T07:19:38;5.17;;;3.87;;
17696;SDS011;8967;47.984;7.842;2023-02-28T07:22:05;6.00;;;4.13;;
17696;SDS011;8967;47.984;7.842;2023-02-28T07:24:35;8.47;;;4.23;;
17696;SDS011;8967;47.984;7.842;2023-02-28T07:27:03;5.93;;;4.30;;
17696;SDS011;8967;47.984;7.842;2023-02-28T07:29:30;8.40;;;4.10;;
17696;SDS011;8967;47.984;7.842;2023-02-28T07:31:57;8.23;;;4.43;;
17696;SDS011;8967;47.984;7.842;2023-02-28T07:34:25;6.40;;;4.20;;
17696;SDS011;8967;47.984;7.842;2023-02-28T07:36:52;8.93;;;4.73;;
17696;SDS011;8967;47.984;7.842;2023-02-28T07:39:20;8.13;;;4.53;;
17696;SDS011;8967;47.984;7.842;2023-02-28T07:41:47;7.63;;;4.60;;
17696;SDS011;8967;47.984;7.842;2023-02-28T07:44:14;11.20;;;5.50;;
17696;SDS011;8967;47.984;7.842;2023-02-28T07:46:43;7.70;;;4.30;;
17696;SDS011;8967;47.984;7.842;2023-02-28T07:49:10;7.87;;;4.27;;
17696;SDS011;8967;47.984;7.842;2023-02-28T07:51:38;10.17;;;4.83;;
17696;SDS011;8967;47.984;7.842;2023-02-28T07:54:05;8.63;;;5.03;;
17696;SDS011;8967;47.984;7.842;2023-02-28T07:56:32;7.67;;;4.87;;
17696;SDS011;8967;47.984;7.842;2023-02-28T07:58:59;7.53;;;4.57;;
17696;SDS011;8967;47.984;7.842;2023-02-28T08:01:29;6.90;;;4.57;;
17696;SDS011;8967;47.984;7.842;2023-02-28T08:03:56;6.67;;;4.53;;
17696;SDS011;8967;47.984;7.842;2023-02-28T08:06:25;6.27;;;4.60;;
17696;SDS011;8967;47.984;7.842;2023-02-28T08:08:54;7.20;;;4.20;;
17696;SDS011;8967;47.984;7.842;2023-02-28T08:11:21;8.20;;;4.63;;
17696;SDS011;8967;47.984;7.842;2023-02-28T08:13:48;7.43;;;4.50;;
17696;SDS011;8967;47.984;7.842;2023-02-28T08:16:15;6.73;;;4.20;;
17696;SDS011;8967;47.984;7.842;2023-02-28T08:18:47;6.10;;;4.50;;
17696;SDS011;8967;47.984;7.842;2023-02-28T08:21:14;7.20;;;4.20;;
17696;SDS011;8967;47.984;7.842;2023-02-28T08:23:41;6.67;;;4.00;;
17696;SDS011;8967;47.984;7.842;2023-02-28T08:26:12;7.00;;;4.80;;
17696;SDS011;8967;47.984;7.842;2023-02-28T08:28:39;8.27;;;4.57;;
17696;SDS011;8967;47.984;7.842;2023-02-28T08:31:09;9.10;;;4.30;;
17696;SDS011;8967;47.984;7.842;2023-02-28T08:33:38;6.73;;;4.60;;
17696;SDS011;8967;47.984;7.842;2023-02-28T08:36:07;6.30;;;4.33;;
17696;SDS011;8967;47.984;7.842;2023-02-28T08:38:35;7.63;;;4.77;;
17696;SDS011;8967;47.984;7.842;2023-02-28T08:41:05;7.73;;;4.90;;
17696;SDS011;8967;47.984;7.842;2023-02-28T08:43:35;9.07;;;4.60;;
17696;SDS011;8967;47.984;7.842;2023-02-28T08:46:03;7.30;;;5.03;;
17696;SDS011;8967;47.984;7.842;2023-02-28T08:48:31;8.17;;;5.10;;
17696;SDS011;8967;47.984;7.842;2023-02-28T08:51:03;8.10;;;5.23;;
17696;SDS011;8967;47.984;7.842;2023-02-28T08:53:31;9.13;;;6.20;;
17696;SDS011;8967;47.984;7.842;2023-02-28T08:55:59;7.30;;;5.20;;
17696;SDS011;8967;47.984;7.842;2023-02-28T08:58:27;9.87;;;5.70;;
17696;SDS011;8967;47.984;7.842;2023-02-28T09:00:56;9.10;;;5.80;;
17696;SDS011;8967;47.984;7.842;2023-02-28T09:03:23;9.53;;;4.93;;
17696;SDS011;8967;47.984;7.842;2023-02-28T09:05:53;9.00;;;5.50;;
17696;SDS011;8967;47.984;7.842;2023-02-28T09:08:21;8.53;;;5.57;;
17696;SDS011;8967;47.984;7.842;2023-02-28T09:10:51;10.53;;;5.67;;
17696;SDS011;8967;47.984;7.842;2023-02-28T09:13:19;7.70;;;5.33;;
17696;SDS011;8967;47.984;7.842;2023-02-28T09:15:46;11.43;;;6.60;;
17696;SDS011;8967;47.984;7.842;2023-02-28T09:18:15;9.13;;;6.17;;
17696;SDS011;8967;47.984;7.842;2023-02-28T09:20:42;9.80;;;6.00;;
17696;SDS011;8967;47.984;7.842;2023-02-28T09:23:10;9.73;;;6.07;;
17696;SDS011;8967;47.984;7.842;2023-02-28T09:25:40;9.83;;;5.83;;
17696;SDS011;8967;47.984;7.842;2023-02-28T09:28:14;10.67;;;6.13;;
17696;SDS011;8967;47.984;7.842;2023-02-28T09:30:42;11.47;;;6.30;;
17696;SDS011;8967;47.984;7.842;2023-02-28T09:33:11;8.93;;;5.50;;
17696;SDS011;8967;47.984;7.842;2023-02-28T09:35:40;8.83;;;5.90;;
17696;SDS011;8967;47.984;7.842;2023-02-28T09:38:08;9.17;;;5.37;;
17696;SDS011;8967;47.984;7.842;2023-02-28T09:40:36;7.90;;;5.60;;
17696;SDS011;8967;47.984;7.842;2023-02-28T09:43:05;8.17;;;5.37;;
17696;SDS011;8967;47.984;7.842;2023-02-28T09:45:35;11.00;;;5.77;;
17696;SDS011;8967;47.984;7.842;2023-02-28T09:48:07;7.57;;;5.33;;
17696;SDS011;8967;47.984;7.842;2023-02-28T09:50:41;12.47;;;5.80;;
17696;SDS011;8967;47.984;7.842;2023-02-28T09:53:13;9.60;;;5.53;;
17696;SDS011;8967;47.984;7.842;2023-02-28T09:55:47;7.77;;;5.10;;
17696;SDS011;8967;47.984;7.842;2023-02-28T09:58:18;8.63;;;5.13;;
17696;SDS011;8967;47.984;7.842;2023-02-28T10:00:49;8.67;;;5.40;;
17696;SDS011;8967;47.984;7.842;2023-02-28T10:03:30;10.17;;;5.37;;
17696;SDS011;8967;47.984;7.842;2023-02-28T10:06:04;8.13;;;5.50;;
17696;SDS011;8967;47.984;7.842;2023-02-28T10:08:39;9.50;;;5.77;;
17696;SDS011;8967;47.984;7.842;2023-02-28T10:11:12;8.73;;;5.87;;
17696;SDS011;8967;47.984;7.842;2023-02-28T10:13:45;8.27;;;5.47;;
17696;SDS011;8967;47.984;7.842;2023-02-28T10:16:24;9.13;;;6.07;;
17696;SDS011;8967;47.984;7.842;2023-02-28T10:18:56;7.80;;;4.87;;
17696;SDS011;8967;47.984;7.842;2023-02-28T10:21:34;11.43;;;6.60;;
17696;SDS011;8967;47.984;7.842;2023-02-28T10:24:04;9.87;;;6.00;;
17696;SDS011;8967;47.984;7.842;2023-02-28T10:26:41;8.77;;;5.77;;
17696;SDS011;8967;47.984;7.842;2023-02-28T10:29:11;8.87;;;5.57;;
17696;SDS011;8967;47.984;7.842;2023-02-28T10:31:38;9.97;;;6.00;;
17696;SDS011;8967;47.984;7.842;2023-02-28T10:34:05;7.20;;;5.17;;
17696;SDS011;8967;47.984;7.842;2023-02-28T10:36:34;6.70;;;4.70;;
17696;SDS011;8967;47.984;7.842;2023-02-28T10:39:01;7.83;;;5.57;;
17696;SDS011;8967;47.984;7.842;2023-02-28T10:42:03;8.93;;;5.43;;
17696;SDS011;8967;47.984;7.842;2023-02-28T10:44:31;7.63;;;5.03;;
17696;SDS011;8967;47.984;7.842;2023-02-28T10:46:58;10.17;;;6.00;;
17696;SDS011;8967;47.984;7.842;2023-02-28T10:49:26;8.07;;;5.17;;
17696;SDS011;8967;47.984;7.842;2023-02-28T10:51:57;7.47;;;5.67;;
17696;SDS011;8967;47.984;7.842;2023-02-28T10:54:27;10.73;;;6.60;;
17696;SDS011;8967;47.984;7.842;2023-02-28T10:57:05;8.67;;;5.83;;
17696;SDS011;8967;47.984;7.842;2023-02-28T10:59:34;6.80;;;5.33;;
17696;SDS011;8967;47.984;7.842;2023-02-28T11:02:01;10.33;;;5.77;;
17696;SDS011;8967;47.984;7.842;2023-02-28T11:04:32;10.73;;;5.97;;
17696;SDS011;8967;47.984;7.842;2023-02-28T11:07:06;7.50;;;5.30;;
17696;SDS011;8967;47.984;7.842;2023-02-28T11:09:45;7.63;;;5.27;;
17696;SDS011;8967;47.984;7.842;2023-02-28T11:12:19;8.73;;;5.73;;
17696;SDS011;8967;47.984;7.842;2023-02-28T11:14:49;9.03;;;5.43;;
17696;SDS011;8967;47.984;7.842;2023-02-28T11:17:19;8.93;;;6.10;;
17696;SDS011;8967;47.984;7.842;2023-02-28T11:19:49;8.73;;;5.53;;
17696;SDS011;8967;47.984;7.842;2023-02-28T11:22:20;8.27;;;5.77;;
17696;SDS011;8967;47.984;7.842;2023-02-28T11:24:52;9.50;;;5.87;;
17696;SDS011;8967;47.984;7.842;2023-02-28T11:27:42;6.43;;;5.00;;
17696;SDS011;8967;47.984;7.842;2023-02-28T11:30:23;7.47;;;5.43;;
17696;SDS011;8967;47.984;7.842;2023-02-28T11:32:52;10.30;;;5.60;;
17696;SDS011;8967;47.984;7.842;2023-02-28T11:35:21;7.07;;;5.27;;
17696;SDS011;8967;47.984;7.842;2023-02-28T11:37:53;10.37;;;6.07;;
17696;SDS011;8967;47.984;7.842;2023-02-28T11:40:22;9.73;;;6.20;;
17696;SDS011;8967;47.984;7.842;2023-02-28T11:43:01;9.93;;;6.17;;
17696;SDS011;8967;47.984;7.842;2023-02-28T11:45:42;7.97;;;5.97;;
17696;SDS011;8967;47.984;7.842;2023-02-28T11:48:17;31.27;;;11.70;;
17696;SDS011;8967;47.984;7.842;2023-02-28T11:50:54;30.40;;;8.23;;
17696;SDS011;8967;47.984;7.842;2023-02-28T11:53:38;13.00;;;6.53;;
17696;SDS011;8967;47.984;7.842;2023-02-28T11:56:18;10.13;;;5.90;;
17696;SDS011;8967;47.984;7.842;2023-02-28T11:58:54;8.47;;;5.40;;
17696;SDS011;8967;47.984;7.842;2023-02-28T12:01:38;22.80;;;13.07;;
17696;SDS011;8967;47.984;7.842;2023-02-28T12:04:25;28.77;;;13.43;;
17696;SDS011;8967;47.984;7.842;2023-02-28T12:07:00;10.77;;;6.33;;
17696;SDS011;8967;47.984;7.842;2023-02-28T12:09:39;9.30;;;6.33;;
17696;SDS011;8967;47.984;7.842;2023-02-28T12:12:17;10.53;;;6.70;;
17696;SDS011;8967;47.984;7.842;2023-02-28T12:14:54;9.63;;;6.23;;
17696;SDS011;8967;47.984;7.842;2023-02-28T12:17:38;9.57;;;5.60;;
17696;SDS011;8967;47.984;7.842;2023-02-28T12:20:17;10.97;;;6.23;;
17696;SDS011;8967;47.984;7.842;2023-02-28T12:22:54;9.57;;;6.30;;
17696;SDS011;8967;47.984;7.842;2023-02-28T12:25:39;9.00;;;6.07;;
17696;SDS011;8967;47.984;7.842;2023-02-28T12:28:25;9.50;;;6.57;;
17696;SDS011;8967;47.984;7.842;2023-02-28T12:30:56;11.80;;;6.70;;
17696;SDS011;8967;47.984;7.842;2023-02-28T12:33:28;10.97;;;6.53;;
17696;SDS011;8967;47.984;7.842;2023-02-28T12:36:00;10.10;;;6.20;;
17696;SDS011;8967;47.984;7.842;2023-02-28T12:38:34;11.17;;;6.27;;
17696;SDS011;8967;47.984;7.842;2023-02-28T12:41:09;9.27;;;5.90;;
17696;SDS011;8967;47.984;7.842;2023-02-28T12:43:40;11.13;;;6.60;;
17696;SDS011;8967;47.984;7.842;2023-02-28T12:46:11;9.57;;;6.10;;
17696;SDS011;8967;47.984;7.842;2023-02-28T12:48:43;9.93;;;6.50;;
17696;SDS011;8967;47.984;7.842;2023-02-28T12:51:13;11.13;;;6.33;;
17696;SDS011;8967;47.984;7.842;2023-02-28T12:53:49;11.53;;;6.53;;
17696;SDS011;8967;47.984;7.842;2023-02-28T12:56:27;11.00;;;7.00;;
17696;SDS011;8967;47.984;7.842;2023-02-28T12:59:03;10.37;;;6.57;;
17696;SDS011;8967;47.984;7.842;2023-02-28T13:01:42;10.67;;;6.40;;
17696;SDS011;8967;47.984;7.842;2023-02-28T13:07:40;8.30;;;5.60;;
17696;SDS011;8967;47.984;7.842;2023-02-28T13:10:37;10.17;;;6.83;;
17696;SDS011;8967;47.984;7.842;2023-02-28T13:13:14;10.30;;;6.60;;
17696;SDS011;8967;47.984;7.842;2023-02-28T13:15:56;10.20;;;7.33;;
17696;SDS011;8967;47.984;7.842;2023-02-28T13:18:32;10.60;;;6.90;;
17696;SDS011;8967;47.984;7.842;2023-02-28T13:21:03;11.87;;;6.70;;
17696;SDS011;8967;47.984;7.842;2023-02-28T13:23:56;9.37;;;6.33;;
17696;SDS011;8967;47.984;7.842;2023-02-28T13:29:35;11.67;;;6.33;;
17696;SDS011;8967;47.984;7.842;2023-02-28T13:35:14;12.43;;;6.70;;
17696;SDS011;8967;47.984;7.842;2023-02-28T13:38:09;9.63;;;6.37;;
17696;SDS011;8967;47.984;7.842;2023-02-28T13:40:50;9.47;;;6.67;;
17696;SDS011;8967;47.984;7.842;2023-02-28T13:43:17;10.63;;;6.97;;
17696;SDS011;8967;47.984;7.842;2023-02-28T13:48:38;10.47;;;6.80;;
17696;SDS011;8967;47.984;7.842;2023-02-28T13:51:27;10.57;;;6.33;;
17696;SDS011;8967;47.984;7.842;2023-02-28T13:54:07;9.07;;;6.60;;
17696;SDS011;8967;47.984;7.842;2023-02-28T13:56:46;10.77;;;6.27;;
17696;SDS011;8967;47.984;7.842;2023-02-28T13:59:21;9.47;;;6.83;;
17696;SDS011;8967;47.984;7.842;2023-02-28T14:02:03;9.70;;;6.60;;
17696;SDS011;8967;47.984;7.842;2023-02-28T14:07:27;11.87;;;7.30;;
17696;SDS011;8967;47.984;7.842;2023-02-28T14:10:01;10.83;;;7.20;;
17696;SDS011;8967;47.984;7.842;2023-02-28T14:12:52;10.90;;;6.63;;
17696;SDS011;8967;47.984;7.842;2023-02-28T14:15:30;12.23;;;7.20;;
17696;SDS011;8967;47.984;7.842;2023-02-28T14:18:20;9.57;;;6.60;;
17696;SDS011;8967;47.984;7.842;2023-02-28T14:21:00;11.37;;;7.20;;
17696;SDS011;8967;47.984;7.842;2023-02-28T14:23:38;9.57;;;6.50;;
17696;SDS011;8967;47.984;7.842;2023-02-28T14:26:26;11.03;;;6.97;;
17696;SDS011;8967;47.984;7.842;2023-02-28T14:29:09;10.07;;;7.00;;
17696;SDS011;8967;47.984;7.842;2023-02-28T14:31:52;14.63;;;7.13;;
17696;SDS011;8967;47.984;7.842;2023-02-28T14:37:11;12.10;;;7.10;;
17696;SDS011;8967;47.984;7.842;2023-02-28T14:39:42;9.83;;;6.63;;
17696;SDS011;8967;47.984;7.842;2023-02-28T14:42:28;11.53;;;7.23;;
17696;SDS011;8967;47.984;7.842;2023-02-28T14:44:57;12.43;;;7.00;;
17696;SDS011;8967;47.984;7.842;2023-02-28T14:47:27;14.33;;;7.60;;
17696;SDS011;8967;47.984;7.842;2023-02-28T14:50:00;12.20;;;7.47;;
17696;SDS011;8967;47.984;7.842;2023-02-28T14:52:30;11.70;;;7.67;;
17696;SDS011;8967;47.984;7.842;2023-02-28T14:54:59;13.27;;;7.43;;
17696;SDS011;8967;47.984;7.842;2023-02-28T14:57:30;10.93;;;7.10;;
17696;SDS011;8967;47.984;7.842;2023-02-28T14:59:59;11.97;;;7.43;;
17696;SDS011;8967;47.984;7.842;2023-02-28T15:02:33;12.97;;;7.10;;
17696;SDS011;8967;47.984;7.842;2023-02-28T15:05:15;13.17;;;7.30;;
17696;SDS011;8967;47.984;7.842;2023-02-28T15:07:48;10.73;;;7.20;;
17696;SDS011;8967;47.984;7.842;2023-02-28T15:10:26;13.07;;;7.77;;
17696;SDS011;8967;47.984;7.842;2023-02-28T15:12:55;15.00;;;7.73;;
17696;SDS011;8967;47.984;7.842;2023-02-28T15:15:24;13.63;;;7.83;;
17696;SDS011;8967;47.984;7.842;2023-02-28T15:17:59;13.27;;;8.03;;
17696;SDS011;8967;47.984;7.842;2023-02-28T15:20:30;13.53;;;7.67;;
17696;SDS011;8967;47.984;7.842;2023-02-28T15:22:59;12.13;;;7.77;;
17696;SDS011;8967;47.984;7.842;2023-02-28T15:25:27;17.70;;;7.83;;
17696;SDS011;8967;47.984;7.842;2023-02-28T15:27:54;15.60;;;8.40;;
17696;SDS011;8967;47.984;7.842;2023-02-28T15:30:24;14.27;;;8.50;;
17696;SDS011;8967;47.984;7.842;2023-02-28T15:33:03;14.40;;;7.63;;
17696;SDS011;8967;47.984;7.842;2023-02-28T15:35:34;13.93;;;8.40;;
17696;SDS011;8967;47.984;7.842;2023-02-28T15:38:02;11.97;;;8.37;;
17696;SDS011;8967;47.984;7.842;2023-02-28T15:40:35;13.80;;;8.00;;
17696;SDS011;8967;47.984;7.842;2023-02-28T15:43:05;12.43;;;8.33;;
17696;SDS011;8967;47.984;7.842;2023-02-28T15:45:35;11.70;;;7.80;;
17696;SDS011;8967;47.984;7.842;2023-02-28T15:48:10;13.20;;;8.20;;